Stena Conquest — IBGM — position and weather

sailwx.info

Track history (hours):
 
Tides and Currents Weather Stations Pressure Air Temp Water Temp Dewpoint Dewpoint Depression Visibility Wind Speed Wind Dir Waves Ship Positions

Stena Conquest

Last reported at 2017-Nov-17 04:02 UTC. Time now 2017-Nov-18 06:50 UTC.
Position N 36°08' W 005°26'.

Length 182 m; draft 0.85 m.

Type: Ship (hazmat cat A). MMSI: 247091300.

Date/timePositionNaut miles runAvg speedWind from/ knotsBaromVisibWave heightAir tempDewpointWater temp
2017-Nov-17 04:02N 36°08' W 005°26'1 1.4
2017-Nov-17 03:11N 36°08' W 005°24'1 4.3
2017-Nov-17 03:00N 36°08' W 005°24'3 5.4
2017-Nov-17 02:31N 36°05' W 005°23'610.9
2017-Nov-17 02:00N 36°03' W 005°16'  
2017-Nov-13 00:10N 37°15' E 015°44'1711.8
2017-Nov-12 22:41N 37°30' E 015°54'211.9
2017-Nov-12 22:30N 37°32' E 015°55'611.8
2017-Nov-12 22:00N 37°37' E 015°59'611.8
2017-Nov-12 21:30N 37°42' E 016°03'  
Track history (hours):
 
Tides and Currents Weather Stations Pressure Air Temp Water Temp Dewpoint Dewpoint Depression Visibility Wind Speed Wind Dir Waves Ship Positions

Stena Conquest

Last reported at 2017-Nov-17 04:02 UTC. Time now 2017-Nov-18 06:50 UTC.
Position N 36°08' W 005°26'.

Length 182 m; draft 0.85 m.

Type: Ship (hazmat cat A). MMSI: 247091300.

Date/timePositionNaut miles runAvg speedWind from/ knotsBaromVisibWave heightAir tempDewpointWater temp
2017-Nov-17 04:02N 36°08' W 005°26'1 1.4
2017-Nov-17 03:11N 36°08' W 005°24'1 4.3
2017-Nov-17 03:00N 36°08' W 005°24'3 5.4
2017-Nov-17 02:31N 36°05' W 005°23'610.9
2017-Nov-17 02:00N 36°03' W 005°16'  
2017-Nov-13 00:10N 37°15' E 015°44'1711.8
2017-Nov-12 22:41N 37°30' E 015°54'211.9
2017-Nov-12 22:30N 37°32' E 015°55'611.8
2017-Nov-12 22:00N 37°37' E 015°59'611.8
2017-Nov-12 21:30N 37°42' E 016°03'  

Dump ship's entire track history